KECS/ECS METAR and TAF weather

Enter ICAO airport designator
Station Type Date Time Source
KECS METAR 2020/09/20 14:55 UTC NOAA

KECS 201455Z AUTO 00000KT 10SM CLR 13/03 A3005 RMK AO2


Station Type Date Time Source
KECS Decoded METAR 2020/09/20 14:55 UTC NOAA

Station name not available
Sep 20, 2020 - 10:55 AM EDT / 2020.09.20 1455 UTC
Wind: Calm:0
Visibility: 10 mile(s):0
Sky conditions: clear
Temperature: 55 F (13 C)
Dew Point: 37 F (3 C)
Relative Humidity: 50%
Pressure (altimeter): 30.05 in. Hg (1017 hPa)
ob: KECS 201455Z AUTO 00000KT 10SM CLR 13/03 A3005 RMK AO2
cycle: 15

Station Type Date Time Source
KECS TAF UTC NOAA

Error!

Example: see airport list